Grover, South Dakota
Current Conditions -  °F | °C
As of 8:53 AM on Monday 22 Dec 2014 (Local Time) from KATY Reporting Station
Haze Haze  
Wind Chill: 30°   Ceiling: 300
Heat Index: 37°   Visibility: 6mi
Dew Point: 36°   Wind: 9mph
Humidity: 96%   Direction: 150°SSE
Pressure: 29.42"   Gusts: NA
Location:  44.9156°N, 97.1699°W
Report Text: KATY 221453Z AUTO 15008KT 6SM BR OVC003 03/02 A2942 RMK AO2 UPB1355E1359RAB1359E32 SLP976 P0001 60001 T00280022 58003
Loading
Personal Weather Stations






























Interactive Weather Map New forecast layout! Learn more

10-Day Weather Forecast

Advertisements
Track Severe Weather on mobile